createdAt,value
2022-10-31T00:01:28.421Z,12.70
2022-10-31T00:03:55.333Z,12.70
2022-10-31T00:06:22.980Z,12.70
2022-10-31T00:08:57.634Z,12.70
2022-10-31T00:11:24.696Z,12.70
2022-10-31T00:13:51.377Z,12.70
2022-10-31T00:16:23.120Z,12.60
2022-10-31T00:18:50.923Z,12.60
2022-10-31T00:21:18.298Z,12.60
2022-10-31T00:23:45.019Z,12.60
2022-10-31T00:26:11.703Z,12.60
2022-10-31T00:28:38.382Z,12.50
2022-10-31T00:31:07.489Z,12.50
2022-10-31T00:33:35.478Z,12.50
2022-10-31T00:36:02.429Z,12.50
2022-10-31T00:38:29.207Z,12.50
2022-10-31T00:40:55.997Z,12.50
2022-10-31T00:43:22.655Z,12.40
2022-10-31T00:45:49.314Z,12.50
2022-10-31T00:48:15.978Z,12.50
2022-10-31T00:50:43.187Z,12.40
2022-10-31T00:53:09.857Z,12.40
2022-10-31T00:55:36.510Z,12.30
2022-10-31T00:58:03.620Z,12.30
2022-10-31T01:00:30.779Z,12.30
2022-10-31T01:02:57.699Z,12.30
2022-10-31T01:05:24.551Z,12.30
2022-10-31T01:07:51.216Z,12.30
2022-10-31T01:10:24.373Z,12.30
2022-10-31T01:12:51.460Z,12.30
2022-10-31T01:15:22.001Z,12.30
2022-10-31T01:17:49.301Z,12.20
2022-10-31T01:20:16.664Z,12.30
2022-10-31T01:22:43.629Z,12.30
2022-10-31T01:25:11.086Z,12.30
2022-10-31T01:27:39.752Z,12.30
2022-10-31T01:30:06.937Z,12.30
2022-10-31T01:32:33.747Z,12.30
2022-10-31T01:35:00.428Z,12.20
2022-10-31T01:37:29.042Z,12.30
2022-10-31T01:39:56.004Z,12.30
2022-10-31T01:42:24.232Z,12.30
2022-10-31T01:45:01.265Z,12.30
2022-10-31T01:47:48.953Z,12.30
2022-10-31T01:50:27.150Z,12.30
2022-10-31T01:52:55.031Z,12.30
2022-10-31T01:55:26.442Z,12.30
2022-10-31T01:58:00.825Z,12.30
2022-10-31T02:00:50.900Z,12.30
2022-10-31T02:03:19.597Z,12.30
2022-10-31T02:05:46.707Z,12.30
2022-10-31T02:08:35.792Z,12.30
2022-10-31T02:11:02.655Z,12.30
2022-10-31T02:13:30.418Z,12.20
2022-10-31T02:15:59.464Z,12.30
2022-10-31T02:18:30.219Z,12.30
2022-10-31T02:21:18.196Z,12.20
2022-10-31T02:24:09.782Z,12.30
2022-10-31T02:26:55.267Z,12.30
2022-10-31T02:29:52.977Z,12.30
2022-10-31T02:32:47.999Z,12.20
2022-10-31T02:35:28.969Z,12.30
2022-10-31T02:38:17.904Z,12.20
2022-10-31T02:40:58.781Z,12.20
2022-10-31T02:43:49.822Z,12.20
2022-10-31T02:46:26.607Z,12.20
2022-10-31T02:48:57.791Z,12.20
2022-10-31T02:51:24.831Z,12.20
2022-10-31T02:53:51.544Z,12.20
2022-10-31T02:56:19.895Z,12.20
2022-10-31T02:58:48.196Z,12.20
2022-10-31T03:01:25.169Z,12.20
2022-10-31T03:03:54.757Z,12.10
2022-10-31T03:06:24.809Z,12.20
2022-10-31T03:09:16.815Z,12.10
2022-10-31T03:11:59.507Z,12.10
2022-10-31T03:14:38.223Z,12.00
2022-10-31T03:17:08.335Z,12.10
2022-10-31T03:19:41.408Z,12.00
2022-10-31T03:22:30.484Z,12.00
2022-10-31T03:24:58.600Z,12.00
2022-10-31T03:27:28.043Z,12.00
2022-10-31T03:29:58.258Z,12.10
2022-10-31T03:32:34.080Z,12.10
2022-10-31T03:35:02.409Z,12.10
2022-10-31T03:37:32.762Z,12.00
2022-10-31T03:40:02.232Z,12.00
2022-10-31T03:42:32.809Z,12.10
2022-10-31T03:45:06.123Z,12.00
2022-10-31T03:47:34.523Z,12.00
2022-10-31T03:50:01.410Z,12.00
2022-10-31T03:52:36.480Z,12.00
2022-10-31T03:55:30.982Z,12.00
2022-10-31T03:58:06.104Z,12.10
2022-10-31T04:00:34.767Z,12.10
2022-10-31T04:03:10.582Z,12.10
2022-10-31T04:05:39.505Z,12.10
2022-10-31T04:08:10.682Z,12.10
2022-10-31T04:10:39.271Z,12.20
2022-10-31T04:13:11.220Z,12.10
2022-10-31T04:15:39.571Z,12.10
2022-10-31T04:18:06.888Z,12.10
2022-10-31T04:20:37.778Z,12.20
2022-10-31T04:23:05.268Z,12.20
2022-10-31T04:25:32.070Z,12.20
2022-10-31T04:27:59.151Z,12.20
2022-10-31T04:30:26.146Z,12.20
2022-10-31T04:32:52.946Z,12.20
2022-10-31T04:35:19.593Z,12.20
2022-10-31T04:37:46.267Z,12.20
2022-10-31T04:40:13.153Z,12.20
2022-10-31T04:42:39.785Z,12.20
2022-10-31T04:45:06.830Z,12.20
2022-10-31T04:47:34.754Z,12.20
2022-10-31T04:50:02.124Z,12.30
2022-10-31T04:52:29.154Z,12.30
2022-10-31T04:54:55.892Z,12.30
2022-10-31T04:57:22.627Z,12.30
2022-10-31T04:59:50.729Z,12.20
2022-10-31T05:02:17.437Z,12.20
2022-10-31T05:04:44.121Z,12.20
2022-10-31T05:07:10.858Z,12.20
2022-10-31T05:09:37.610Z,12.20
2022-10-31T05:12:04.822Z,12.20
2022-10-31T05:14:31.535Z,12.20
2022-10-31T05:16:58.266Z,12.30
2022-10-31T05:19:24.946Z,12.20
2022-10-31T05:21:51.694Z,12.20
2022-10-31T05:24:18.353Z,12.20
2022-10-31T05:26:44.954Z,12.20
2022-10-31T05:29:11.609Z,12.30
2022-10-31T05:31:38.361Z,12.20
2022-10-31T05:34:05.167Z,12.20
2022-10-31T05:36:31.994Z,12.20
2022-10-31T05:38:59.238Z,12.20
2022-10-31T05:41:26.057Z,12.20
2022-10-31T05:43:52.781Z,12.20
2022-10-31T05:46:19.587Z,12.20
2022-10-31T05:48:46.296Z,12.20
2022-10-31T05:51:13.596Z,12.20
2022-10-31T05:53:40.300Z,12.20
2022-10-31T05:56:07.284Z,12.20
2022-10-31T05:58:34.040Z,12.20
2022-10-31T06:01:00.879Z,12.20
2022-10-31T06:03:27.702Z,12.20
2022-10-31T06:05:55.387Z,12.20
2022-10-31T06:08:22.339Z,12.20
2022-10-31T06:10:49.119Z,12.20
2022-10-31T06:13:16.592Z,12.20
2022-10-31T06:15:44.003Z,12.20
2022-10-31T06:18:10.730Z,12.20
2022-10-31T06:20:37.516Z,12.20
2022-10-31T06:23:05.143Z,12.10
2022-10-31T06:25:32.223Z,12.10
2022-10-31T06:27:58.854Z,12.10
2022-10-31T06:30:26.495Z,12.20
2022-10-31T06:32:53.549Z,12.20
2022-10-31T06:35:20.420Z,12.20
2022-10-31T06:37:56.253Z,12.20
2022-10-31T06:40:23.292Z,12.20
2022-10-31T06:43:02.910Z,12.20
2022-10-31T06:45:29.956Z,12.30
2022-10-31T06:48:15.903Z,12.30
2022-10-31T06:50:43.705Z,12.20
2022-10-31T06:55:37.037Z,12.20
2022-10-31T06:58:03.847Z,12.20
2022-10-31T07:00:31.911Z,12.30
2022-10-31T07:03:00.863Z,12.30
2022-10-31T07:05:28.936Z,12.30
2022-10-31T07:07:57.474Z,12.40
2022-10-31T07:10:25.945Z,12.40
2022-10-31T07:13:00.395Z,12.50
2022-10-31T07:15:29.256Z,12.60
2022-10-31T07:18:01.390Z,12.60
2022-10-31T07:20:29.046Z,12.70
2022-10-31T07:22:56.112Z,12.80
2022-10-31T07:25:23.675Z,12.80
2022-10-31T07:27:50.672Z,12.80
2022-10-31T07:30:17.886Z,12.80
2022-10-31T07:32:46.645Z,12.90
2022-10-31T07:35:16.410Z,12.90
2022-10-31T07:37:43.284Z,13.00
2022-10-31T07:40:11.095Z,13.10
2022-10-31T07:42:43.081Z,13.10
2022-10-31T07:45:12.738Z,13.20
2022-10-31T07:47:40.960Z,13.20
2022-10-31T07:50:09.321Z,13.20
2022-10-31T07:52:36.434Z,13.20
2022-10-31T07:55:04.518Z,13.30
2022-10-31T07:57:34.499Z,13.20
2022-10-31T08:00:01.752Z,13.20
2022-10-31T08:02:28.556Z,13.20
2022-10-31T08:04:57.232Z,13.20
2022-10-31T08:07:28.001Z,13.20
2022-10-31T08:09:55.365Z,13.20
2022-10-31T08:12:22.427Z,13.20
2022-10-31T08:14:49.185Z,13.30
2022-10-31T08:17:21.850Z,13.30
2022-10-31T08:19:48.571Z,13.20
2022-10-31T08:22:15.327Z,13.20
2022-10-31T08:24:42.067Z,13.30
2022-10-31T08:27:08.957Z,13.20
2022-10-31T08:29:35.695Z,13.30
2022-10-31T08:32:02.600Z,13.30
2022-10-31T08:34:29.348Z,13.20
2022-10-31T08:36:55.985Z,13.20
2022-10-31T08:39:22.812Z,13.20
2022-10-31T08:41:49.596Z,13.10
2022-10-31T08:44:16.386Z,13.10
2022-10-31T08:46:43.311Z,13.10
2022-10-31T08:49:10.062Z,13.00
2022-10-31T08:51:36.745Z,13.00
2022-10-31T08:54:03.614Z,13.00
2022-10-31T08:56:30.359Z,13.00
2022-10-31T08:58:57.043Z,13.10
2022-10-31T09:01:24.159Z,13.10
2022-10-31T09:03:50.972Z,13.10
2022-10-31T09:06:17.746Z,13.20
2022-10-31T09:08:44.518Z,13.10
2022-10-31T09:11:11.212Z,13.20
2022-10-31T09:13:41.267Z,13.20
2022-10-31T09:16:08.572Z,13.20
2022-10-31T09:18:35.404Z,13.20
2022-10-31T09:21:02.632Z,13.20
2022-10-31T09:23:29.687Z,13.20
2022-10-31T09:25:56.398Z,13.20
2022-10-31T09:28:24.784Z,13.20
2022-10-31T09:30:53.451Z,13.20
2022-10-31T09:33:20.669Z,13.20
2022-10-31T09:35:48.029Z,13.30
2022-10-31T09:38:17.402Z,13.30
2022-10-31T09:40:45.156Z,13.40
2022-10-31T09:43:16.891Z,13.40
2022-10-31T09:46:01.754Z,13.40
2022-10-31T09:49:06.455Z,13.50
2022-10-31T09:51:38.411Z,13.50
2022-10-31T09:54:19.386Z,13.50
2022-10-31T09:56:46.499Z,13.60
2022-10-31T09:59:27.898Z,13.60
2022-10-31T10:02:25.589Z,13.70
2022-10-31T10:05:01.846Z,13.70
2022-10-31T10:07:46.728Z,13.70
2022-10-31T10:10:28.590Z,13.70
2022-10-31T10:13:08.098Z,13.70
2022-10-31T10:15:42.062Z,13.70
2022-10-31T10:18:27.448Z,13.80
2022-10-31T10:21:00.211Z,13.80
2022-10-31T10:23:41.909Z,13.90
2022-10-31T10:26:19.851Z,13.90
2022-10-31T10:28:58.432Z,14.00
2022-10-31T10:31:34.395Z,14.10
2022-10-31T10:34:06.552Z,14.20
2022-10-31T10:37:02.579Z,14.20
2022-10-31T10:39:41.424Z,14.20
2022-10-31T10:42:16.274Z,14.30
2022-10-31T10:44:48.069Z,14.30
2022-10-31T10:47:15.064Z,14.40
2022-10-31T10:49:52.619Z,14.50
2022-10-31T10:52:42.227Z,14.50
2022-10-31T10:55:25.929Z,14.50
2022-10-31T10:58:05.092Z,14.60
2022-10-31T11:00:43.040Z,14.70
2022-10-31T11:03:10.952Z,14.70
2022-10-31T11:05:57.588Z,14.70
2022-10-31T11:08:28.225Z,14.80
2022-10-31T11:11:09.974Z,14.90
2022-10-31T11:13:37.792Z,14.90
2022-10-31T11:16:11.449Z,15.00
2022-10-31T11:18:42.612Z,15.00
2022-10-31T11:21:29.279Z,15.10
2022-10-31T11:24:13.868Z,15.10
2022-10-31T11:26:42.912Z,15.10
2022-10-31T11:29:23.007Z,15.20
2022-10-31T11:31:53.084Z,15.20
2022-10-31T11:34:30.828Z,15.30
2022-10-31T11:37:13.789Z,15.40
2022-10-31T11:40:05.735Z,15.40
2022-10-31T11:42:42.013Z,15.40
2022-10-31T11:45:31.225Z,15.50
2022-10-31T11:48:11.887Z,15.60
2022-10-31T11:50:41.494Z,15.70
2022-10-31T11:53:17.937Z,15.80
2022-10-31T11:55:46.422Z,15.90
2022-10-31T11:58:27.272Z,15.90
2022-10-31T12:00:56.436Z,16.10
2022-10-31T12:03:23.229Z,16.10
2022-10-31T12:06:11.273Z,16.20
2022-10-31T12:08:39.419Z,16.20
2022-10-31T12:11:34.050Z,16.30
2022-10-31T12:14:31.982Z,16.40
2022-10-31T12:17:06.707Z,16.50
2022-10-31T12:19:43.675Z,16.60
2022-10-31T12:22:30.460Z,16.70
2022-10-31T12:25:15.256Z,16.80
2022-10-31T12:28:10.210Z,16.90
2022-10-31T12:31:13.924Z,16.90
2022-10-31T12:33:46.884Z,17.00
2022-10-31T12:36:35.535Z,17.10
2022-10-31T12:39:30.694Z,17.20
2022-10-31T12:42:59.292Z,17.40
2022-10-31T12:45:44.410Z,17.50
2022-10-31T12:48:46.399Z,17.60
2022-10-31T12:51:41.077Z,17.70
2022-10-31T12:54:25.574Z,17.80
2022-10-31T12:57:31.111Z,17.80
2022-10-31T13:00:29.598Z,17.90
2022-10-31T13:03:30.743Z,18.00
2022-10-31T13:06:06.196Z,18.10
2022-10-31T13:08:44.508Z,18.20
2022-10-31T13:11:33.924Z,18.30
2022-10-31T13:14:21.634Z,18.40
2022-10-31T13:16:49.018Z,18.40
2022-10-31T13:19:24.917Z,18.50
2022-10-31T13:22:19.738Z,18.50
2022-10-31T13:25:10.624Z,18.50
2022-10-31T13:27:58.209Z,18.60
2022-10-31T13:30:29.587Z,18.60
2022-10-31T13:33:05.978Z,18.60
2022-10-31T13:35:51.110Z,18.70
2022-10-31T13:38:27.851Z,18.70
2022-10-31T13:41:31.915Z,18.70
2022-10-31T13:44:25.371Z,18.70
2022-10-31T13:46:53.778Z,18.80
2022-10-31T13:49:29.706Z,18.80
2022-10-31T13:52:11.762Z,18.80
2022-10-31T13:54:43.056Z,18.80
2022-10-31T13:57:21.506Z,18.60
2022-10-31T13:59:56.937Z,18.50
2022-10-31T14:02:32.588Z,18.40
2022-10-31T14:05:02.440Z,18.40
2022-10-31T14:07:30.260Z,18.30
2022-10-31T14:10:21.085Z,18.20
2022-10-31T14:12:49.465Z,18.10
2022-10-31T14:15:20.354Z,18.10
2022-10-31T14:17:57.495Z,18.10
2022-10-31T14:20:42.602Z,18.00
2022-10-31T14:23:28.125Z,17.90
2022-10-31T14:25:55.187Z,17.90
2022-10-31T14:28:34.437Z,17.80
2022-10-31T14:31:02.194Z,17.80
2022-10-31T14:33:30.645Z,17.60
2022-10-31T14:36:24.744Z,17.60
2022-10-31T14:39:05.750Z,17.50
2022-10-31T14:42:05.888Z,17.50
2022-10-31T14:45:01.718Z,17.40
2022-10-31T14:47:34.850Z,17.40
2022-10-31T14:50:43.032Z,17.30
2022-10-31T14:53:20.469Z,17.20
2022-10-31T14:55:54.358Z,17.00
2022-10-31T14:58:29.205Z,16.90
2022-10-31T15:00:57.943Z,16.70
2022-10-31T15:03:27.711Z,16.60
2022-10-31T15:05:57.793Z,16.50
2022-10-31T15:08:47.574Z,16.40
2022-10-31T15:11:21.557Z,16.30
2022-10-31T15:13:56.783Z,16.10
2022-10-31T15:16:40.270Z,16.10
2022-10-31T15:19:14.886Z,16.00
2022-10-31T15:21:44.911Z,15.80
2022-10-31T15:24:14.344Z,15.70
2022-10-31T15:26:44.626Z,15.70
2022-10-31T15:29:16.765Z,15.60
2022-10-31T15:31:58.967Z,15.50
2022-10-31T15:34:42.000Z,15.50
2022-10-31T15:37:20.735Z,15.40
2022-10-31T15:39:49.426Z,15.30
2022-10-31T15:42:24.616Z,15.30
2022-10-31T15:45:06.108Z,15.30
2022-10-31T15:47:34.476Z,15.20
2022-10-31T15:50:03.597Z,15.20
2022-10-31T15:52:42.448Z,15.00
2022-10-31T15:55:15.295Z,14.90
2022-10-31T15:57:45.841Z,14.90
2022-10-31T16:00:30.885Z,14.90
2022-10-31T16:03:16.720Z,14.90
2022-10-31T16:05:52.276Z,14.80
2022-10-31T16:08:37.926Z,14.80
2022-10-31T16:11:07.905Z,14.70
2022-10-31T16:13:37.996Z,14.70
2022-10-31T16:19:06.035Z,14.70
2022-10-31T16:21:36.327Z,14.60
2022-10-31T16:24:12.999Z,14.50
2022-10-31T16:26:39.928Z,14.50
2022-10-31T16:29:27.447Z,14.40
2022-10-31T16:31:54.205Z,14.30
2022-10-31T16:34:26.606Z,14.30
2022-10-31T16:36:54.167Z,14.20
2022-10-31T16:39:21.378Z,14.20
2022-10-31T16:41:51.598Z,14.30
2022-10-31T16:44:28.356Z,14.20
2022-10-31T16:47:07.290Z,14.20
2022-10-31T16:49:33.940Z,14.20
2022-10-31T16:52:00.582Z,14.20
2022-10-31T16:54:29.294Z,14.20
2022-10-31T16:56:56.200Z,14.10
2022-10-31T16:59:22.989Z,14.10
2022-10-31T17:01:50.665Z,14.00
2022-10-31T17:04:17.670Z,14.00
2022-10-31T17:06:44.395Z,14.00
2022-10-31T17:09:11.082Z,13.90
2022-10-31T17:11:49.500Z,13.90
2022-10-31T17:14:17.728Z,13.90
2022-10-31T17:16:44.579Z,13.80
2022-10-31T17:19:12.575Z,13.70
2022-10-31T17:21:40.173Z,13.60
2022-10-31T17:24:07.514Z,13.60
2022-10-31T17:26:34.322Z,13.60
2022-10-31T17:29:01.000Z,13.50
2022-10-31T17:31:30.161Z,13.30
2022-10-31T17:34:02.187Z,13.20
2022-10-31T17:36:30.986Z,13.10
2022-10-31T17:38:57.828Z,13.10
2022-10-31T17:41:24.604Z,13.10
2022-10-31T17:43:58.901Z,13.00
2022-10-31T17:46:26.246Z,12.90
2022-10-31T17:48:53.087Z,12.80
2022-10-31T17:51:19.847Z,12.70
2022-10-31T17:53:46.541Z,12.60
2022-10-31T17:56:13.444Z,12.60
2022-10-31T17:58:40.229Z,12.60
2022-10-31T18:01:10.115Z,12.60
2022-10-31T18:03:37.789Z,12.60
2022-10-31T18:06:05.031Z,12.60
2022-10-31T18:08:33.876Z,12.60
2022-10-31T18:11:05.424Z,12.60
2022-10-31T18:13:32.104Z,12.70
2022-10-31T18:15:58.953Z,12.80
2022-10-31T18:18:25.655Z,12.80
2022-10-31T18:20:52.333Z,12.80
2022-10-31T18:23:19.484Z,12.80
2022-10-31T18:25:46.185Z,12.80
2022-10-31T18:28:13.438Z,12.80
2022-10-31T18:30:41.830Z,12.80
2022-10-31T18:33:08.893Z,12.90
2022-10-31T18:35:37.407Z,12.90
2022-10-31T18:38:05.798Z,12.90
2022-10-31T18:40:36.119Z,12.90
2022-10-31T18:43:03.636Z,12.90
2022-10-31T18:45:45.358Z,13.00
2022-10-31T18:48:14.373Z,12.90
2022-10-31T18:50:41.247Z,12.90
2022-10-31T18:53:08.091Z,13.00
2022-10-31T18:55:39.402Z,13.00
2022-10-31T18:58:06.705Z,12.90
2022-10-31T19:00:33.346Z,12.90
2022-10-31T19:03:00.465Z,12.90
2022-10-31T19:05:27.379Z,12.90
2022-10-31T19:07:54.154Z,12.90
2022-10-31T19:10:20.928Z,12.90
2022-10-31T19:12:47.658Z,12.90
2022-10-31T19:15:14.409Z,12.90
2022-10-31T19:17:41.079Z,12.80
2022-10-31T19:20:08.383Z,12.80
2022-10-31T19:22:35.068Z,12.70
2022-10-31T19:25:05.039Z,12.60
2022-10-31T19:27:35.956Z,12.60
2022-10-31T19:30:03.127Z,12.60
2022-10-31T19:32:29.885Z,12.60
2022-10-31T19:34:56.621Z,12.70
2022-10-31T19:37:23.527Z,12.70
2022-10-31T19:39:50.232Z,12.70
2022-10-31T19:42:16.978Z,12.70
2022-10-31T19:44:43.781Z,12.80
2022-10-31T19:47:10.457Z,12.80
2022-10-31T19:49:37.286Z,12.80
2022-10-31T19:52:04.500Z,12.80
2022-10-31T19:54:31.274Z,12.90
2022-10-31T19:56:58.001Z,12.80
2022-10-31T19:59:24.645Z,12.80
2022-10-31T20:01:52.459Z,12.90
2022-10-31T20:04:19.337Z,12.90
2022-10-31T20:06:46.016Z,12.90
2022-10-31T20:09:14.112Z,12.90
2022-10-31T20:11:43.512Z,12.90
2022-10-31T20:14:15.856Z,12.80
2022-10-31T20:16:43.026Z,12.80
2022-10-31T20:19:09.738Z,12.80
2022-10-31T20:21:39.301Z,12.80
2022-10-31T20:24:09.227Z,12.80
2022-10-31T20:26:38.431Z,12.90
2022-10-31T20:29:05.672Z,12.90
2022-10-31T20:31:34.848Z,12.80
2022-10-31T20:34:01.762Z,12.90
2022-10-31T20:36:28.416Z,12.90
2022-10-31T20:38:55.309Z,12.90
2022-10-31T20:41:21.979Z,12.90
2022-10-31T20:43:48.796Z,12.80
2022-10-31T20:46:18.098Z,12.80
2022-10-31T20:48:45.255Z,12.90
2022-10-31T20:53:46.654Z,12.80
2022-10-31T20:56:15.446Z,12.80
2022-10-31T20:58:43.582Z,12.80
2022-10-31T21:01:22.611Z,12.80
2022-10-31T21:03:50.065Z,12.80
2022-10-31T21:06:18.494Z,12.80
2022-10-31T21:08:45.489Z,12.70
2022-10-31T21:11:17.657Z,12.70
2022-10-31T21:13:45.844Z,12.70
2022-10-31T21:16:21.841Z,12.70
2022-10-31T21:18:49.633Z,12.70
2022-10-31T21:21:19.899Z,12.70
2022-10-31T21:23:47.161Z,12.70
2022-10-31T21:26:21.733Z,12.70
2022-10-31T21:28:50.330Z,12.80
2022-10-31T21:31:18.180Z,12.70
2022-10-31T21:33:45.927Z,12.70
2022-10-31T21:36:13.223Z,12.70
2022-10-31T21:38:40.624Z,12.70
2022-10-31T21:41:10.162Z,12.70
2022-10-31T21:43:39.173Z,12.70
2022-10-31T21:46:26.663Z,12.70
2022-10-31T21:48:54.172Z,12.70
2022-10-31T21:51:32.670Z,12.60
2022-10-31T21:54:00.038Z,12.60
2022-10-31T21:56:26.984Z,12.60
2022-10-31T21:58:54.378Z,12.50
2022-10-31T22:01:22.583Z,12.50
2022-10-31T22:03:49.460Z,12.60
2022-10-31T22:06:16.754Z,12.50
2022-10-31T22:08:44.124Z,12.60
2022-10-31T22:11:13.931Z,12.60
2022-10-31T22:13:42.031Z,12.50
2022-10-31T22:16:14.511Z,12.50
2022-10-31T22:18:42.159Z,12.50
2022-10-31T22:21:14.638Z,12.50
2022-10-31T22:23:42.332Z,12.50
2022-10-31T22:26:14.335Z,12.50
2022-10-31T22:28:42.451Z,12.50
2022-10-31T22:33:39.262Z,12.50
2022-10-31T22:36:11.510Z,12.50
2022-10-31T22:38:39.901Z,12.50
2022-10-31T22:41:08.353Z,12.40
2022-10-31T22:43:35.233Z,12.50
2022-10-31T22:46:04.344Z,12.40
2022-10-31T22:48:35.151Z,12.40
2022-10-31T22:51:09.936Z,12.40
2022-10-31T22:53:37.932Z,12.40
2022-10-31T22:56:06.313Z,12.40
2022-10-31T22:58:33.994Z,12.40
2022-10-31T23:01:05.696Z,12.40
2022-10-31T23:03:32.403Z,12.40
2022-10-31T23:06:01.095Z,12.40
2022-10-31T23:08:29.253Z,12.40
2022-10-31T23:10:56.264Z,12.40
2022-10-31T23:13:23.057Z,12.40
2022-10-31T23:15:49.899Z,12.40
2022-10-31T23:18:36.614Z,12.50
2022-10-31T23:21:05.672Z,12.50
2022-10-31T23:23:37.129Z,12.50
2022-10-31T23:26:04.474Z,12.50
2022-10-31T23:28:31.749Z,12.60
2022-10-31T23:30:58.461Z,12.60
2022-10-31T23:33:30.535Z,12.60
2022-10-31T23:35:58.069Z,12.60
2022-10-31T23:38:24.691Z,12.60
2022-10-31T23:40:51.361Z,12.60
2022-10-31T23:43:18.053Z,12.60
2022-10-31T23:45:45.023Z,12.70
2022-10-31T23:48:11.686Z,12.70
2022-10-31T23:50:38.329Z,12.70
2022-10-31T23:53:04.962Z,12.60
2022-10-31T23:55:31.868Z,12.60
2022-10-31T23:57:58.846Z,12.60
